createdAt,value
2024-02-21T00:01:44.700Z,7.05
2024-02-21T00:04:12.108Z,7.24
2024-02-21T00:06:39.457Z,7.39
2024-02-21T00:09:06.808Z,7.53
2024-02-21T00:11:34.705Z,7.63
2024-02-21T00:14:02.202Z,7.73
2024-02-21T00:16:29.569Z,7.91
2024-02-21T00:18:57.110Z,7.98
2024-02-21T00:21:24.458Z,8.00
2024-02-21T00:23:51.926Z,7.88
2024-02-21T00:26:19.581Z,7.91
2024-02-21T00:28:47.060Z,7.81
2024-02-21T00:31:14.502Z,7.61
2024-02-21T00:33:42.570Z,7.46
2024-02-21T00:36:10.381Z,7.29
2024-02-21T00:38:37.674Z,7.44
2024-02-21T00:41:05.066Z,6.98
2024-02-21T00:43:32.702Z,6.35
2024-02-21T00:46:00.135Z,5.75
2024-02-21T00:48:27.639Z,5.75
2024-02-21T00:50:54.980Z,6.14
2024-02-21T00:53:25.509Z,6.09
2024-02-21T00:55:53.000Z,5.74
2024-02-21T00:58:20.480Z,5.88
2024-02-21T01:00:47.913Z,6.23
2024-02-21T01:03:15.488Z,6.53
2024-02-21T01:05:42.792Z,6.67
2024-02-21T01:08:10.213Z,6.57
2024-02-21T01:10:37.536Z,6.58
2024-02-21T01:13:04.877Z,6.44
2024-02-21T01:15:32.376Z,6.54
2024-02-21T01:17:59.954Z,6.52
2024-02-21T01:20:27.308Z,6.67
2024-02-21T01:22:54.585Z,6.85
2024-02-21T01:25:21.907Z,6.83
2024-02-21T01:27:49.254Z,6.67
2024-02-21T01:30:16.673Z,6.71
2024-02-21T01:32:43.929Z,6.89
2024-02-21T01:35:11.414Z,6.86
2024-02-21T01:37:38.962Z,6.96
2024-02-21T01:40:07.260Z,6.81
2024-02-21T01:42:39.545Z,6.36
2024-02-21T01:45:07.324Z,6.15
2024-02-21T01:47:35.004Z,6.39
2024-02-21T01:50:03.727Z,6.19
2024-02-21T01:52:31.953Z,6.48
2024-02-21T01:54:59.485Z,6.44
2024-02-21T01:57:27.558Z,6.58
2024-02-21T01:59:54.920Z,6.59
2024-02-21T02:02:22.640Z,6.51
2024-02-21T02:04:50.333Z,6.46
2024-02-21T02:07:17.765Z,6.52
2024-02-21T02:09:45.223Z,6.59
2024-02-21T02:12:12.576Z,6.22
2024-02-21T02:14:39.860Z,6.00
2024-02-21T02:17:07.264Z,5.95
2024-02-21T02:19:35.210Z,6.28
2024-02-21T02:22:17.123Z,6.48
2024-02-21T02:24:44.681Z,6.42
2024-02-21T02:27:12.064Z,6.50
2024-02-21T02:29:39.349Z,6.78
2024-02-21T02:32:07.137Z,6.85
2024-02-21T02:34:34.483Z,6.87
2024-02-21T02:37:01.926Z,6.76
2024-02-21T02:39:30.426Z,6.38
2024-02-21T02:41:57.765Z,6.31
2024-02-21T02:44:25.112Z,5.66
2024-02-21T02:46:52.473Z,5.33
2024-02-21T02:49:19.936Z,5.10
2024-02-21T02:51:47.281Z,4.76
2024-02-21T02:54:14.699Z,4.81
2024-02-21T02:56:43.382Z,4.61
2024-02-21T02:59:10.703Z,4.50
2024-02-21T03:01:39.164Z,4.33
2024-02-21T03:04:06.668Z,4.50
2024-02-21T03:06:34.354Z,4.78
2024-02-21T03:09:01.648Z,5.08
2024-02-21T03:11:31.224Z,4.81
2024-02-21T03:13:58.919Z,4.95
2024-02-21T03:16:26.781Z,4.56
2024-02-21T03:18:54.249Z,4.34
2024-02-21T03:21:21.615Z,4.70
2024-02-21T03:23:49.472Z,4.96
2024-02-21T03:26:18.456Z,4.90
2024-02-21T03:28:49.498Z,5.02
2024-02-21T03:31:16.890Z,5.11
2024-02-21T03:33:45.113Z,5.40
2024-02-21T03:36:16.650Z,5.58
2024-02-21T03:38:44.298Z,5.66
2024-02-21T03:41:11.715Z,5.60
2024-02-21T03:43:39.972Z,5.11
2024-02-21T03:46:07.949Z,5.22
2024-02-21T03:48:35.246Z,5.27
2024-02-21T03:51:02.695Z,4.98
2024-02-21T03:53:30.040Z,4.87
2024-02-21T03:55:58.063Z,5.03
2024-02-21T03:58:25.608Z,5.16
2024-02-21T04:00:53.189Z,5.38
2024-02-21T04:03:20.972Z,5.34
2024-02-21T04:05:48.365Z,5.29
2024-02-21T04:08:15.715Z,5.43
2024-02-21T04:10:43.754Z,4.83
2024-02-21T04:13:11.536Z,4.96
2024-02-21T04:15:39.459Z,5.16
2024-02-21T04:18:07.152Z,5.12
2024-02-21T04:20:36.710Z,4.65
2024-02-21T04:23:04.389Z,4.24
2024-02-21T04:25:31.744Z,3.91
2024-02-21T04:27:59.067Z,3.98
2024-02-21T04:30:26.437Z,3.82
2024-02-21T04:32:53.996Z,3.98
2024-02-21T04:35:22.024Z,4.66
2024-02-21T04:37:50.827Z,4.84
2024-02-21T04:40:18.282Z,5.04
2024-02-21T04:42:45.588Z,5.23
2024-02-21T04:45:13.009Z,5.14
2024-02-21T04:47:40.389Z,5.25
2024-02-21T04:50:08.219Z,5.34
2024-02-21T04:52:35.594Z,5.37
2024-02-21T04:55:02.912Z,5.47
2024-02-21T04:57:30.596Z,5.32
2024-02-21T04:59:57.885Z,5.39
2024-02-21T05:02:25.634Z,5.38
2024-02-21T05:04:53.894Z,5.56
2024-02-21T05:07:21.272Z,5.68
2024-02-21T05:09:48.722Z,5.81
2024-02-21T05:12:16.409Z,5.77
2024-02-21T05:14:43.666Z,5.51
2024-02-21T05:17:11.073Z,5.55
2024-02-21T05:19:38.463Z,5.32
2024-02-21T05:22:06.854Z,5.38
2024-02-21T05:24:34.231Z,5.36
2024-02-21T05:27:01.608Z,5.67
2024-02-21T05:29:28.908Z,5.64
2024-02-21T05:31:58.667Z,5.66
2024-02-21T05:34:26.932Z,5.55
2024-02-21T05:36:54.432Z,5.50
2024-02-21T05:39:23.936Z,4.88
2024-02-21T05:41:52.003Z,4.20
2024-02-21T05:44:20.153Z,3.89
2024-02-21T05:46:47.601Z,3.68
2024-02-21T05:49:15.641Z,3.46
2024-02-21T05:51:42.986Z,3.42
2024-02-21T05:54:10.259Z,3.65
2024-02-21T05:56:37.558Z,3.79
2024-02-21T05:59:04.930Z,3.86
2024-02-21T06:01:32.292Z,3.97
2024-02-21T06:03:59.639Z,4.11
2024-02-21T06:06:27.040Z,3.76
2024-02-21T06:08:54.465Z,4.06
2024-02-21T06:11:21.998Z,4.07
2024-02-21T06:13:49.455Z,4.33
2024-02-21T06:16:16.777Z,4.52
2024-02-21T06:18:44.515Z,4.75
2024-02-21T06:21:13.613Z,5.04
2024-02-21T06:23:40.903Z,4.48
2024-02-21T06:26:08.253Z,4.56
2024-02-21T06:28:35.650Z,4.60
2024-02-21T06:31:03.149Z,4.58
2024-02-21T06:33:30.595Z,4.82
2024-02-21T06:35:58.307Z,5.03
2024-02-21T06:38:25.879Z,4.95
2024-02-21T06:40:55.341Z,4.98
2024-02-21T06:43:23.437Z,4.66
2024-02-21T06:45:54.584Z,4.14
2024-02-21T06:48:22.061Z,3.90
2024-02-21T06:50:49.541Z,4.03
2024-02-21T06:53:16.924Z,3.83
2024-02-21T06:55:44.384Z,3.85
2024-02-21T06:58:13.227Z,4.12
2024-02-21T07:00:41.514Z,4.38
2024-02-21T07:03:09.019Z,4.62
2024-02-21T07:05:36.451Z,4.84
2024-02-21T07:08:04.572Z,4.57
2024-02-21T07:10:32.068Z,4.30
2024-02-21T07:12:59.384Z,4.42
2024-02-21T07:15:28.056Z,4.21
2024-02-21T07:17:55.615Z,4.32
2024-02-21T07:20:23.025Z,4.31
2024-02-21T07:22:50.583Z,4.69
2024-02-21T07:25:18.046Z,4.51
2024-02-21T07:27:46.080Z,4.36
2024-02-21T07:30:16.315Z,4.44
2024-02-21T07:32:45.394Z,4.82
2024-02-21T07:35:13.428Z,4.92
2024-02-21T07:37:41.046Z,5.08
2024-02-21T07:40:14.346Z,5.45
2024-02-21T07:42:42.184Z,5.73
2024-02-21T07:45:10.106Z,5.88
2024-02-21T07:47:38.241Z,6.02
2024-02-21T07:50:06.274Z,6.04
2024-02-21T07:52:34.374Z,6.38
2024-02-21T07:55:02.091Z,6.41
2024-02-21T07:57:29.378Z,6.30
2024-02-21T07:59:56.712Z,6.58
2024-02-21T08:02:24.101Z,6.76
2024-02-21T08:04:51.434Z,6.89
2024-02-21T08:07:18.844Z,7.13
2024-02-21T08:09:46.300Z,7.25
2024-02-21T08:12:13.685Z,7.36
2024-02-21T08:14:42.137Z,7.41
2024-02-21T08:17:09.804Z,7.19
2024-02-21T08:19:37.399Z,7.24
2024-02-21T08:22:05.234Z,7.26
2024-02-21T08:24:32.940Z,7.32
2024-02-21T08:27:00.173Z,7.16
2024-02-21T08:29:27.490Z,7.11
2024-02-21T08:31:55.085Z,7.16
2024-02-21T08:34:22.566Z,7.22
2024-02-21T08:36:49.998Z,7.27
2024-02-21T08:39:17.956Z,7.26
2024-02-21T08:41:52.619Z,7.62
2024-02-21T08:44:27.667Z,8.06
2024-02-21T08:46:55.510Z,7.76
2024-02-21T08:49:23.197Z,7.98
2024-02-21T08:51:50.649Z,8.23
2024-02-21T08:54:18.299Z,8.18
2024-02-21T08:56:45.754Z,8.33
2024-02-21T08:59:13.118Z,8.11
2024-02-21T09:01:40.627Z,8.28
2024-02-21T09:04:08.746Z,8.62
2024-02-21T09:06:40.233Z,8.30
2024-02-21T09:09:09.229Z,8.29
2024-02-21T09:11:36.789Z,8.39
2024-02-21T09:14:04.969Z,8.84
2024-02-21T09:16:33.640Z,9.10
2024-02-21T09:19:02.100Z,9.24
2024-02-21T09:21:29.634Z,9.13
2024-02-21T09:23:59.952Z,9.60
2024-02-21T09:26:28.191Z,10.03
2024-02-21T09:28:55.684Z,9.80
2024-02-21T09:31:23.171Z,9.89
2024-02-21T09:33:51.013Z,10.40
2024-02-21T09:36:18.413Z,10.59
2024-02-21T09:38:45.697Z,10.51
2024-02-21T09:41:21.643Z,10.81
2024-02-21T09:43:55.441Z,10.72
2024-02-21T09:46:43.699Z,11.18
2024-02-21T09:49:26.184Z,11.19
2024-02-21T09:51:56.553Z,11.39
2024-02-21T09:54:24.059Z,11.49
2024-02-21T09:56:51.397Z,11.39
2024-02-21T09:59:19.479Z,11.51
2024-02-21T10:01:51.509Z,11.44
2024-02-21T10:04:20.005Z,11.58
2024-02-21T10:06:48.336Z,11.70
2024-02-21T10:09:29.000Z,11.88
2024-02-21T10:12:20.270Z,11.98
2024-02-21T10:14:47.706Z,12.18
2024-02-21T10:17:20.257Z,12.18
2024-02-21T10:19:48.804Z,12.39
2024-02-21T10:22:16.647Z,12.32
2024-02-21T10:24:44.208Z,12.53
2024-02-21T10:27:14.626Z,12.46
2024-02-21T10:29:42.892Z,12.67
2024-02-21T10:32:15.188Z,12.81
2024-02-21T10:34:44.300Z,12.96
2024-02-21T10:37:13.306Z,12.96
2024-02-21T10:39:42.299Z,13.05
2024-02-21T10:42:12.905Z,12.93
2024-02-21T10:44:43.324Z,13.05
2024-02-21T10:47:15.019Z,12.91
2024-02-21T10:49:46.908Z,12.93
2024-02-21T10:52:33.567Z,13.31
2024-02-21T10:55:08.258Z,13.59
2024-02-21T10:57:36.843Z,13.57
2024-02-21T11:00:09.360Z,13.34
2024-02-21T11:02:37.841Z,14.10
2024-02-21T11:05:05.990Z,14.17
2024-02-21T11:07:38.251Z,14.22
2024-02-21T11:10:08.541Z,14.23
2024-02-21T11:12:35.983Z,14.20
2024-02-21T11:15:07.440Z,14.37
2024-02-21T11:17:37.495Z,14.38
2024-02-21T11:20:15.509Z,14.26
2024-02-21T11:22:44.376Z,14.23
2024-02-21T11:25:14.641Z,14.21
2024-02-21T11:27:48.722Z,14.77
2024-02-21T11:30:17.325Z,14.37
2024-02-21T11:32:44.673Z,14.60
2024-02-21T11:35:21.108Z,14.89
2024-02-21T11:37:48.718Z,14.89
2024-02-21T11:40:16.162Z,15.25
2024-02-21T11:42:43.590Z,15.44
2024-02-21T11:45:11.321Z,15.30
2024-02-21T11:47:42.234Z,15.07
2024-02-21T11:50:13.982Z,15.46
2024-02-21T11:52:42.769Z,15.60
2024-02-21T11:55:10.796Z,15.60
2024-02-21T11:57:44.227Z,15.76
2024-02-21T12:00:21.979Z,15.79
2024-02-21T12:02:51.257Z,15.88
2024-02-21T12:05:20.435Z,16.05
2024-02-21T12:07:48.019Z,15.92
2024-02-21T12:10:15.426Z,15.66
2024-02-21T12:12:42.817Z,15.88
2024-02-21T12:15:10.562Z,15.50
2024-02-21T12:17:39.306Z,15.79
2024-02-21T12:20:10.634Z,16.23
2024-02-21T12:22:44.913Z,15.86
2024-02-21T12:25:20.145Z,16.19
2024-02-21T12:27:48.070Z,16.39
2024-02-21T12:30:15.985Z,16.53
2024-02-21T12:32:43.406Z,16.56
2024-02-21T12:35:10.973Z,16.58
2024-02-21T12:37:42.498Z,16.66
2024-02-21T12:40:11.663Z,16.73
2024-02-21T12:42:39.385Z,17.02
2024-02-21T12:45:07.060Z,16.95
2024-02-21T12:47:34.396Z,16.67
2024-02-21T12:50:04.410Z,16.86
2024-02-21T12:52:32.660Z,16.94
2024-02-21T12:55:00.142Z,17.23
2024-02-21T12:57:28.497Z,17.11
2024-02-21T12:59:56.191Z,17.52
2024-02-21T13:02:23.718Z,17.62
2024-02-21T13:04:51.414Z,17.57
2024-02-21T13:07:19.074Z,17.45
2024-02-21T13:09:46.553Z,17.58
2024-02-21T13:12:14.056Z,17.42
2024-02-21T13:14:44.802Z,17.83
2024-02-21T13:17:12.248Z,17.86
2024-02-21T13:19:39.777Z,17.63
2024-02-21T13:22:08.044Z,17.61
2024-02-21T13:24:35.443Z,17.86
2024-02-21T13:27:04.404Z,17.95
2024-02-21T13:29:31.792Z,17.72
2024-02-21T13:31:59.647Z,17.98
2024-02-21T13:34:27.288Z,17.40
2024-02-21T13:36:54.934Z,17.85
2024-02-21T13:39:22.635Z,17.57
2024-02-21T13:41:50.133Z,17.77
2024-02-21T13:44:18.339Z,18.03
2024-02-21T13:46:45.772Z,18.69
2024-02-21T13:49:13.202Z,19.09
2024-02-21T13:51:42.120Z,22.03
2024-02-21T13:54:10.488Z,22.51
2024-02-21T13:56:38.819Z,24.97
2024-02-21T13:59:06.471Z,26.36
2024-02-21T14:01:34.209Z,26.84
2024-02-21T14:04:01.633Z,27.71
2024-02-21T14:06:29.237Z,28.20
2024-02-21T14:08:56.784Z,28.14
2024-02-21T14:11:24.575Z,29.47
2024-02-21T14:13:52.264Z,30.89
2024-02-21T14:16:19.708Z,29.68
2024-02-21T14:18:47.175Z,27.41
2024-02-21T14:21:14.953Z,27.56
2024-02-21T14:23:42.415Z,28.58
2024-02-21T14:26:19.251Z,28.31
2024-02-21T14:28:47.877Z,29.60
2024-02-21T14:31:15.351Z,27.62
2024-02-21T14:33:43.100Z,25.64
2024-02-21T14:36:12.525Z,26.33
2024-02-21T14:38:40.022Z,24.29
2024-02-21T14:41:07.514Z,21.53
2024-02-21T14:43:36.244Z,21.93
2024-02-21T14:46:05.517Z,20.81
2024-02-21T14:48:33.527Z,19.97
2024-02-21T14:51:01.818Z,19.49
2024-02-21T14:53:30.491Z,19.50
2024-02-21T14:55:59.029Z,18.96
2024-02-21T14:58:27.069Z,18.76
2024-02-21T15:00:55.494Z,19.30
2024-02-21T15:03:23.128Z,18.98
2024-02-21T15:05:50.660Z,18.53
2024-02-21T15:08:19.514Z,18.21
2024-02-21T15:10:47.031Z,18.16
2024-02-21T15:13:15.552Z,18.43
2024-02-21T15:15:43.007Z,18.61
2024-02-21T15:18:10.396Z,18.22
2024-02-21T15:20:38.289Z,18.20
2024-02-21T15:23:06.364Z,17.64
2024-02-21T15:25:35.044Z,17.83
2024-02-21T15:28:05.570Z,17.24
2024-02-21T15:30:33.989Z,17.28
2024-02-21T15:33:04.377Z,17.36
2024-02-21T15:35:32.365Z,16.97
2024-02-21T15:38:00.213Z,16.88
2024-02-21T15:40:28.081Z,16.84
2024-02-21T15:42:55.612Z,16.72
2024-02-21T15:45:23.410Z,16.66
2024-02-21T15:47:51.762Z,16.64
2024-02-21T15:50:20.502Z,17.07
2024-02-21T15:52:47.938Z,18.04
2024-02-21T15:55:15.658Z,18.27
2024-02-21T15:57:43.249Z,17.74
2024-02-21T16:00:13.362Z,17.91
2024-02-21T16:02:44.329Z,17.85
2024-02-21T16:05:12.223Z,17.79
2024-02-21T16:07:39.960Z,17.35
2024-02-21T16:10:08.640Z,16.95
2024-02-21T16:12:36.178Z,16.59
2024-02-21T16:15:05.935Z,16.46
2024-02-21T16:17:33.465Z,16.31
2024-02-21T16:20:05.293Z,16.20
2024-02-21T16:22:32.966Z,16.06
2024-02-21T16:25:00.280Z,15.98
2024-02-21T16:27:27.635Z,15.79
2024-02-21T16:29:54.990Z,15.65
2024-02-21T16:32:22.306Z,15.51
2024-02-21T16:34:50.156Z,15.35
2024-02-21T16:37:17.528Z,15.26
2024-02-21T16:39:45.434Z,15.16
2024-02-21T16:42:12.824Z,14.86
2024-02-21T16:44:40.181Z,14.70
2024-02-21T16:47:08.049Z,14.49
2024-02-21T16:49:37.449Z,14.27
2024-02-21T16:52:05.758Z,14.16
2024-02-21T16:54:34.155Z,14.11
2024-02-21T16:57:02.163Z,13.88
2024-02-21T16:59:29.905Z,13.63
2024-02-21T17:01:57.403Z,13.47
2024-02-21T17:04:28.073Z,13.33
2024-02-21T17:06:56.270Z,13.20
2024-02-21T17:09:23.706Z,13.09
2024-02-21T17:11:52.828Z,13.06
2024-02-21T17:14:20.812Z,12.99
2024-02-21T17:16:48.316Z,12.91
2024-02-21T17:19:16.519Z,12.84
2024-02-21T17:21:44.381Z,12.71
2024-02-21T17:24:11.945Z,12.62
2024-02-21T17:26:40.175Z,12.51
2024-02-21T17:29:08.577Z,12.46
2024-02-21T17:31:36.235Z,12.52
2024-02-21T17:34:04.266Z,12.54
2024-02-21T17:36:31.705Z,12.34
2024-02-21T17:38:59.102Z,12.26
2024-02-21T17:41:26.480Z,12.23
2024-02-21T17:43:53.906Z,12.18
2024-02-21T17:46:22.912Z,12.07
2024-02-21T17:48:50.394Z,12.05
2024-02-21T17:51:17.770Z,11.99
2024-02-21T17:53:45.255Z,12.05
2024-02-21T17:56:12.878Z,12.06
2024-02-21T17:58:40.293Z,11.92
2024-02-21T18:01:07.753Z,11.84
2024-02-21T18:03:35.187Z,11.73
2024-02-21T18:06:04.265Z,11.66
2024-02-21T18:08:32.671Z,11.67
2024-02-21T18:11:00.339Z,11.62
2024-02-21T18:13:31.438Z,11.57
2024-02-21T18:16:05.976Z,11.53
2024-02-21T18:18:33.619Z,11.61
2024-02-21T18:21:01.230Z,11.64
2024-02-21T18:23:31.129Z,11.63
2024-02-21T18:26:00.467Z,11.54
2024-02-21T18:28:28.893Z,11.43
2024-02-21T18:30:56.402Z,11.46
2024-02-21T18:33:24.099Z,11.41
2024-02-21T18:35:51.930Z,11.26
2024-02-21T18:38:19.383Z,11.03
2024-02-21T18:40:47.171Z,10.49
2024-02-21T18:43:15.834Z,10.23
2024-02-21T18:45:43.724Z,10.09
2024-02-21T18:48:14.683Z,10.10
2024-02-21T18:50:43.703Z,10.25
2024-02-21T18:53:11.383Z,10.33
2024-02-21T18:55:38.864Z,10.52
2024-02-21T18:58:06.594Z,10.53
2024-02-21T19:00:34.067Z,10.70
2024-02-21T19:03:01.441Z,10.65
2024-02-21T19:05:28.999Z,10.65
2024-02-21T19:07:56.625Z,10.54
2024-02-21T19:10:24.206Z,10.43
2024-02-21T19:12:51.667Z,10.61
2024-02-21T19:15:19.653Z,10.52
2024-02-21T19:17:47.148Z,10.46
2024-02-21T19:20:14.835Z,10.60
2024-02-21T19:22:46.859Z,10.59
2024-02-21T19:25:18.706Z,10.59
2024-02-21T19:27:46.586Z,10.35
2024-02-21T19:30:15.201Z,10.33
2024-02-21T19:32:42.966Z,10.28
2024-02-21T19:35:13.470Z,10.08
2024-02-21T19:37:41.910Z,9.95
2024-02-21T19:40:14.027Z,9.86
2024-02-21T19:42:41.926Z,9.71
2024-02-21T19:45:09.908Z,10.04
2024-02-21T19:47:37.697Z,10.05
2024-02-21T19:50:05.706Z,9.93
2024-02-21T19:52:33.146Z,10.00
2024-02-21T19:55:00.940Z,9.72
2024-02-21T19:57:28.810Z,9.42
2024-02-21T19:59:56.502Z,9.42
2024-02-21T20:02:25.296Z,9.40
2024-02-21T20:04:53.212Z,9.40
2024-02-21T20:07:23.589Z,9.45
2024-02-21T20:09:53.243Z,9.13
2024-02-21T20:12:21.781Z,8.97
2024-02-21T20:14:50.548Z,8.93
2024-02-21T20:17:18.165Z,8.96
2024-02-21T20:19:46.768Z,9.02
2024-02-21T20:22:14.167Z,9.20
2024-02-21T20:24:41.638Z,9.38
2024-02-21T20:27:09.030Z,9.44
2024-02-21T20:29:36.669Z,9.48
2024-02-21T20:32:04.988Z,9.45
2024-02-21T20:34:34.049Z,9.50
2024-02-21T20:37:01.972Z,9.50
2024-02-21T20:39:30.295Z,9.28
2024-02-21T20:41:58.532Z,8.97
2024-02-21T20:44:26.285Z,8.73
2024-02-21T20:46:54.683Z,8.59
2024-02-21T20:49:22.621Z,8.62
2024-02-21T20:51:50.153Z,8.68
2024-02-21T20:54:17.621Z,8.79
2024-02-21T20:56:45.610Z,8.83
2024-02-21T20:59:19.497Z,8.54
2024-02-21T21:01:54.181Z,8.30
2024-02-21T21:04:29.410Z,8.40
2024-02-21T21:06:57.091Z,8.42
2024-02-21T21:09:24.638Z,8.46
2024-02-21T21:11:52.152Z,8.71
2024-02-21T21:14:20.004Z,8.76
2024-02-21T21:16:47.753Z,8.94
2024-02-21T21:19:15.467Z,8.98
2024-02-21T21:21:45.975Z,9.06
2024-02-21T21:24:18.638Z,9.04
2024-02-21T21:26:47.003Z,9.01
2024-02-21T21:29:14.885Z,8.94
2024-02-21T21:31:45.119Z,8.92
2024-02-21T21:34:14.061Z,8.94
2024-02-21T21:36:41.690Z,9.02
2024-02-21T21:39:09.336Z,8.80
2024-02-21T21:41:36.932Z,8.63
2024-02-21T21:44:04.528Z,8.66
2024-02-21T21:46:32.383Z,8.28
2024-02-21T21:48:59.999Z,8.03
2024-02-21T21:51:30.390Z,8.07
2024-02-21T21:53:57.925Z,8.19
2024-02-21T21:56:25.297Z,8.27
2024-02-21T21:58:52.829Z,8.32
2024-02-21T22:01:20.253Z,8.03
2024-02-21T22:03:48.105Z,7.94
2024-02-21T22:06:15.506Z,8.27
2024-02-21T22:08:47.151Z,8.06
2024-02-21T22:11:17.833Z,8.13
2024-02-21T22:13:45.849Z,8.48
2024-02-21T22:16:13.446Z,8.46
2024-02-21T22:18:43.355Z,8.52
2024-02-21T22:21:11.023Z,8.76
2024-02-21T22:23:40.490Z,8.61
2024-02-21T22:26:08.440Z,8.64
2024-02-21T22:28:35.919Z,8.82
2024-02-21T22:31:03.406Z,8.76
2024-02-21T22:33:30.920Z,8.91
2024-02-21T22:35:58.234Z,8.99
2024-02-21T22:38:25.838Z,8.63
2024-02-21T22:40:53.356Z,8.49
2024-02-21T22:43:20.800Z,8.33
2024-02-21T22:45:50.516Z,8.54
2024-02-21T22:48:17.904Z,8.85
2024-02-21T22:50:45.606Z,8.77
2024-02-21T22:53:13.206Z,8.40
2024-02-21T22:55:40.722Z,8.07
2024-02-21T22:58:08.067Z,7.95
2024-02-21T23:00:35.464Z,8.04
2024-02-21T23:03:02.893Z,8.16
2024-02-21T23:05:30.301Z,8.07
2024-02-21T23:07:57.847Z,8.21
2024-02-21T23:10:27.072Z,8.30
2024-02-21T23:12:55.450Z,7.99
2024-02-21T23:15:22.767Z,8.54
2024-02-21T23:17:50.243Z,8.73
2024-02-21T23:20:17.598Z,8.79
2024-02-21T23:22:45.158Z,8.33
2024-02-21T23:25:13.524Z,8.03
2024-02-21T23:27:41.947Z,8.24
2024-02-21T23:30:12.645Z,8.16
2024-02-21T23:32:41.957Z,8.15
2024-02-21T23:35:09.657Z,8.30
2024-02-21T23:37:37.280Z,8.53
2024-02-21T23:40:05.146Z,8.69
2024-02-21T23:42:32.858Z,8.54
2024-02-21T23:45:00.368Z,8.69
2024-02-21T23:47:27.754Z,8.94
2024-02-21T23:49:55.149Z,9.10
2024-02-21T23:52:22.564Z,8.96
2024-02-21T23:54:49.888Z,8.88
2024-02-21T23:57:17.215Z,8.66
2024-02-21T23:59:45.343Z,8.59
